createdAt,value
2022-09-02T00:01:38.585Z,82.19
2022-09-02T00:04:09.936Z,85.03
2022-09-02T00:06:37.791Z,85.81
2022-09-02T00:09:08.379Z,85.89
2022-09-02T00:11:38.152Z,85.80
2022-09-02T00:14:11.230Z,84.03
2022-09-02T00:16:41.675Z,84.44
2022-09-02T00:19:08.663Z,84.70
2022-09-02T00:21:36.084Z,87.85
2022-09-02T00:24:05.402Z,88.92
2022-09-02T00:26:32.470Z,87.77
2022-09-02T00:28:59.390Z,85.10
2022-09-02T00:31:28.075Z,85.09
2022-09-02T00:33:56.982Z,85.21
2022-09-02T00:36:24.189Z,84.98
2022-09-02T00:38:51.842Z,86.60
2022-09-02T00:41:25.843Z,84.46
2022-09-02T00:43:57.616Z,85.24
2022-09-02T00:46:28.685Z,84.37
2022-09-02T00:49:06.061Z,85.00
2022-09-02T00:51:40.008Z,85.78
2022-09-02T00:54:08.937Z,86.60
2022-09-02T00:56:39.938Z,85.96
2022-09-02T00:59:08.385Z,86.68
2022-09-02T01:01:35.396Z,86.59
2022-09-02T01:04:04.220Z,86.70
2022-09-02T01:06:31.215Z,85.85
2022-09-02T01:09:06.166Z,84.24
2022-09-02T01:11:40.255Z,83.10
2022-09-02T01:14:08.383Z,82.72
2022-09-02T01:16:42.915Z,82.61
2022-09-02T01:19:22.546Z,83.36
2022-09-02T01:21:52.584Z,84.60
2022-09-02T01:24:22.315Z,84.89
2022-09-02T01:26:54.765Z,85.51
2022-09-02T01:29:22.794Z,86.06
2022-09-02T01:31:51.627Z,86.69
2022-09-02T01:34:19.174Z,86.56
2022-09-02T01:36:47.350Z,86.77
2022-09-02T01:39:16.072Z,86.52
2022-09-02T01:41:44.132Z,86.63
2022-09-02T01:44:11.380Z,87.10
2022-09-02T01:46:39.715Z,87.24
2022-09-02T01:49:07.204Z,87.50
2022-09-02T01:51:34.607Z,89.10
2022-09-02T01:54:02.015Z,90.04
2022-09-02T01:56:30.854Z,90.96
2022-09-02T01:59:00.222Z,93.51
2022-09-02T02:01:27.131Z,93.92
2022-09-02T02:03:54.274Z,94.09
2022-09-02T02:06:23.874Z,95.00
2022-09-02T02:08:52.894Z,94.96
2022-09-02T02:11:22.168Z,95.21
2022-09-02T02:13:58.762Z,95.47
2022-09-02T02:16:26.252Z,94.16
2022-09-02T02:18:53.166Z,91.80
2022-09-02T02:21:20.791Z,89.36
2022-09-02T02:23:47.955Z,88.05
2022-09-02T02:26:15.871Z,87.37
2022-09-02T02:28:42.778Z,87.74
2022-09-02T02:31:11.237Z,88.19
2022-09-02T02:33:38.588Z,88.65
2022-09-02T02:36:08.496Z,89.79
2022-09-02T02:38:37.848Z,89.02
2022-09-02T02:41:06.651Z,88.75
2022-09-02T02:43:34.770Z,88.98
2022-09-02T02:46:01.810Z,94.27
2022-09-02T02:48:31.160Z,95.90
2022-09-02T02:50:58.523Z,92.11
2022-09-02T02:53:27.175Z,91.36
2022-09-02T02:55:55.655Z,90.46
2022-09-02T02:58:23.511Z,89.70
2022-09-02T03:00:50.680Z,89.96
2022-09-02T03:03:20.164Z,90.98
2022-09-02T03:05:52.962Z,92.04
2022-09-02T03:08:21.555Z,91.52
2022-09-02T03:10:53.735Z,91.50
2022-09-02T03:13:23.830Z,92.03
2022-09-02T03:15:51.788Z,92.01
2022-09-02T03:18:19.982Z,90.72
2022-09-02T03:20:49.154Z,92.14
2022-09-02T03:23:18.020Z,92.85
2022-09-02T03:25:48.472Z,92.96
2022-09-02T03:28:23.985Z,94.55
2022-09-02T03:30:51.152Z,96.42
2022-09-02T03:33:18.894Z,96.63
2022-09-02T03:35:46.921Z,96.14
2022-09-02T03:38:15.125Z,90.47
2022-09-02T03:40:44.818Z,92.47
2022-09-02T03:43:12.161Z,93.18
2022-09-02T03:45:40.981Z,92.92
2022-09-02T03:48:13.127Z,91.81
2022-09-02T03:50:44.534Z,91.92
2022-09-02T03:53:19.442Z,91.99
2022-09-02T03:55:50.795Z,94.13
2022-09-02T03:58:20.222Z,93.44
2022-09-02T04:00:51.860Z,93.79
2022-09-02T04:03:21.717Z,92.75
2022-09-02T04:05:50.839Z,92.31
2022-09-02T04:08:18.735Z,92.81
2022-09-02T04:10:46.737Z,93.03
2022-09-02T04:13:15.337Z,93.84
2022-09-02T04:15:43.882Z,93.66
2022-09-02T04:18:11.822Z,93.97
2022-09-02T04:20:40.285Z,94.79
2022-09-02T04:23:08.011Z,95.25
2022-09-02T04:25:40.677Z,93.45
2022-09-02T04:28:09.889Z,94.02
2022-09-02T04:30:40.994Z,95.80
2022-09-02T04:33:08.288Z,94.96
2022-09-02T04:35:35.417Z,94.34
2022-09-02T04:38:03.485Z,93.19
2022-09-02T04:40:31.452Z,94.44
2022-09-02T04:42:58.931Z,94.01
2022-09-02T04:45:29.725Z,96.10
2022-09-02T04:47:59.378Z,97.18
2022-09-02T04:50:27.114Z,94.66
2022-09-02T04:52:58.350Z,93.47
2022-09-02T04:55:25.874Z,92.53
2022-09-02T04:57:53.710Z,90.78
2022-09-02T05:00:26.101Z,90.07
2022-09-02T05:02:55.124Z,88.67
2022-09-02T05:05:24.871Z,89.21
2022-09-02T05:07:52.453Z,90.95
2022-09-02T05:10:19.785Z,92.66
2022-09-02T05:12:47.363Z,91.91
2022-09-02T05:15:14.234Z,88.76
2022-09-02T05:17:42.524Z,85.01
2022-09-02T05:20:10.648Z,80.74
2022-09-02T05:22:45.092Z,77.24
2022-09-02T05:25:12.657Z,75.44
2022-09-02T05:27:39.701Z,75.72
2022-09-02T05:30:09.210Z,74.24
2022-09-02T05:32:38.039Z,73.27
2022-09-02T05:35:06.984Z,72.64
2022-09-02T05:37:37.497Z,70.11
2022-09-02T05:40:10.105Z,70.24
2022-09-02T05:42:42.358Z,68.35
2022-09-02T05:45:11.645Z,66.97
2022-09-02T05:47:43.306Z,63.63
2022-09-02T05:50:10.966Z,61.76
2022-09-02T05:52:42.904Z,60.29
2022-09-02T05:55:11.734Z,59.16
2022-09-02T05:57:39.783Z,58.03
2022-09-02T06:00:10.791Z,57.86
2022-09-02T06:02:51.205Z,56.14
2022-09-02T06:05:27.934Z,58.13
2022-09-02T06:08:04.762Z,60.51
2022-09-02T06:10:33.217Z,59.07
2022-09-02T06:13:00.430Z,57.12
2022-09-02T06:15:31.532Z,55.87
2022-09-02T06:18:01.069Z,53.55
2022-09-02T06:20:29.854Z,52.14
2022-09-02T06:22:56.965Z,50.71
2022-09-02T06:25:24.345Z,49.57
2022-09-02T06:27:53.813Z,48.87
2022-09-02T06:30:20.795Z,48.32
2022-09-02T06:32:50.645Z,47.95
2022-09-02T06:35:18.706Z,46.56
2022-09-02T06:37:45.822Z,45.89
2022-09-02T06:40:13.105Z,46.72
2022-09-02T06:42:41.421Z,46.28
2022-09-02T06:45:30.081Z,46.24
2022-09-02T06:48:03.177Z,46.00
2022-09-02T06:50:40.145Z,44.59
2022-09-02T06:53:07.697Z,43.53
2022-09-02T06:55:38.537Z,41.43
2022-09-02T06:58:15.321Z,41.31
2022-09-02T07:00:46.347Z,40.81
2022-09-02T07:03:18.891Z,39.52
2022-09-02T07:06:06.478Z,39.75
2022-09-02T07:08:36.970Z,39.28
2022-09-02T07:11:06.862Z,38.90
2022-09-02T07:13:34.807Z,38.20
2022-09-02T07:16:05.567Z,36.89
2022-09-02T07:18:32.452Z,36.50
2022-09-02T07:21:00.820Z,37.53
2022-09-02T07:23:27.762Z,36.21
2022-09-02T07:25:55.126Z,36.32
2022-09-02T07:28:27.097Z,35.26
2022-09-02T07:30:59.773Z,35.53
2022-09-02T07:33:30.642Z,34.29
2022-09-02T07:35:59.128Z,34.16
2022-09-02T07:38:26.377Z,33.00
2022-09-02T07:40:56.918Z,33.05
2022-09-02T07:43:29.176Z,32.88
2022-09-02T07:45:57.612Z,32.61
2022-09-02T07:48:25.606Z,32.90
2022-09-02T07:50:54.585Z,36.03
2022-09-02T07:53:22.992Z,36.92
2022-09-02T07:55:51.795Z,44.35
2022-09-02T07:58:21.961Z,43.76
2022-09-02T08:00:51.939Z,44.33
2022-09-02T08:03:20.298Z,43.41
2022-09-02T08:05:54.909Z,43.48
2022-09-02T08:08:22.104Z,45.22
2022-09-02T08:10:50.936Z,45.15
2022-09-02T08:13:19.172Z,45.29
2022-09-02T08:15:46.517Z,46.61
2022-09-02T08:18:22.501Z,46.61
2022-09-02T08:20:50.239Z,46.29
2022-09-02T08:23:35.389Z,45.60
2022-09-02T08:26:04.105Z,46.69
2022-09-02T08:28:31.023Z,45.45
2022-09-02T08:30:58.017Z,46.09
2022-09-02T08:33:55.318Z,46.82
2022-09-02T08:36:21.512Z,46.04
2022-09-02T08:38:50.938Z,47.09
2022-09-02T08:41:25.791Z,46.64
2022-09-02T08:43:56.634Z,46.04
2022-09-02T08:46:28.083Z,45.97
2022-09-02T08:49:12.835Z,45.62
2022-09-02T08:51:53.553Z,44.42
2022-09-02T08:54:40.589Z,45.87
2022-09-02T08:57:09.045Z,44.02
2022-09-02T08:59:49.197Z,45.22
2022-09-02T09:02:36.928Z,44.36
2022-09-02T09:05:28.107Z,44.30
2022-09-02T09:08:56.764Z,44.62
2022-09-02T09:12:05.496Z,45.09
2022-09-02T09:14:58.101Z,44.16
2022-09-02T09:17:52.598Z,44.61
2022-09-02T09:20:35.750Z,45.21
2022-09-02T09:23:25.615Z,44.51
2022-09-02T09:30:15.563Z,44.25
2022-09-02T09:33:01.550Z,43.90
2022-09-02T09:36:38.209Z,43.88
2022-09-02T09:39:19.288Z,43.26
2022-09-02T09:49:30.761Z,42.02
2022-09-02T09:55:13.598Z,41.79
2022-09-02T09:58:24.030Z,41.69
2022-09-02T10:01:12.427Z,40.22
2022-09-02T10:03:50.554Z,40.25
2022-09-02T10:06:38.098Z,38.57
2022-09-02T10:10:08.866Z,39.29
2022-09-02T10:12:44.075Z,38.56
2022-09-02T10:15:46.112Z,38.42
2022-09-02T10:18:29.128Z,37.90
2022-09-02T10:21:15.759Z,37.76
2022-09-02T10:23:58.056Z,39.59
2022-09-02T10:26:37.842Z,39.34
2022-09-02T10:29:50.971Z,37.60
2022-09-02T10:32:46.813Z,36.43
2022-09-02T10:35:24.724Z,36.52
2022-09-02T10:38:09.814Z,36.80
2022-09-02T10:40:45.004Z,37.99
2022-09-02T10:43:41.935Z,35.36
2022-09-02T10:46:10.313Z,34.82
2022-09-02T10:49:03.904Z,34.67
2022-09-02T10:52:59.568Z,35.58
2022-09-02T10:56:03.189Z,36.99
2022-09-02T10:58:54.625Z,37.13
2022-09-02T11:01:28.835Z,37.36
2022-09-02T11:04:11.174Z,36.58
2022-09-02T11:07:02.071Z,37.72
2022-09-02T11:09:38.165Z,38.37
2022-09-02T11:12:16.311Z,36.24
2022-09-02T11:14:58.974Z,35.16
2022-09-02T11:17:35.608Z,35.30
2022-09-02T11:20:32.078Z,36.04
2022-09-02T11:23:15.311Z,36.81
2022-09-02T11:26:14.326Z,35.43
2022-09-02T11:29:03.140Z,36.28
2022-09-02T11:31:39.300Z,37.16
2022-09-02T11:34:20.882Z,36.26
2022-09-02T11:36:49.719Z,35.67
2022-09-02T11:39:51.576Z,36.38
2022-09-02T11:43:28.051Z,36.04
2022-09-02T11:46:59.670Z,33.76
2022-09-02T11:49:55.656Z,34.82
2022-09-02T11:52:45.891Z,34.21
2022-09-02T11:55:22.392Z,34.49
2022-09-02T11:57:53.849Z,35.84
2022-09-02T12:00:32.901Z,36.28
2022-09-02T12:03:39.145Z,36.36
2022-09-02T12:06:10.822Z,35.89
2022-09-02T12:09:11.643Z,36.92
2022-09-02T12:11:49.068Z,36.31
2022-09-02T12:15:08.787Z,37.39
2022-09-02T12:17:45.268Z,37.07
2022-09-02T12:21:06.104Z,37.23
2022-09-02T12:24:20.810Z,37.31
2022-09-02T12:27:21.626Z,37.09
2022-09-02T12:29:48.675Z,37.31
2022-09-02T12:33:03.469Z,37.94
2022-09-02T12:35:53.871Z,37.23
2022-09-02T12:38:33.123Z,36.91
2022-09-02T12:41:28.820Z,38.33
2022-09-02T12:44:24.461Z,37.93
2022-09-02T12:47:08.004Z,37.11
2022-09-02T12:49:52.622Z,36.04
2022-09-02T12:52:41.988Z,35.41
2022-09-02T12:55:20.165Z,35.15
2022-09-02T12:57:51.627Z,36.86
2022-09-02T13:00:33.536Z,35.71
2022-09-02T13:03:22.973Z,37.11
2022-09-02T13:06:01.643Z,36.00
2022-09-02T13:09:12.973Z,35.78
2022-09-02T13:13:01.973Z,36.76
2022-09-02T13:16:06.648Z,35.66
2022-09-02T13:19:30.930Z,35.98
2022-09-02T13:22:48.927Z,36.72
2022-09-02T13:26:22.890Z,36.92
2022-09-02T13:30:07.279Z,36.26
2022-09-02T13:32:38.559Z,35.86
2022-09-02T13:35:18.325Z,34.99
2022-09-02T13:37:58.652Z,36.63
2022-09-02T13:40:28.901Z,35.37
2022-09-02T13:42:58.529Z,35.46
2022-09-02T13:45:28.509Z,35.33
2022-09-02T13:48:02.200Z,35.72
2022-09-02T13:50:31.739Z,35.96
2022-09-02T13:55:55.433Z,36.88
2022-09-02T13:58:35.268Z,37.20
2022-09-02T14:01:27.469Z,37.06
2022-09-02T14:03:59.869Z,36.78
2022-09-02T14:06:32.043Z,35.42
2022-09-02T14:09:04.975Z,35.53
2022-09-02T14:11:41.185Z,35.24
2022-09-02T14:14:13.840Z,35.39
2022-09-02T14:16:41.722Z,34.66
2022-09-02T14:19:23.004Z,36.26
2022-09-02T14:21:53.780Z,35.30
2022-09-02T14:24:24.250Z,35.22
2022-09-02T14:26:55.280Z,34.88
2022-09-02T14:29:24.802Z,35.18
2022-09-02T14:32:13.163Z,35.30
2022-09-02T14:34:44.709Z,35.14
2022-09-02T14:37:21.826Z,35.26
2022-09-02T14:40:05.983Z,35.01
2022-09-02T14:42:33.621Z,34.00
2022-09-02T14:45:01.826Z,34.47
2022-09-02T14:47:29.787Z,35.91
2022-09-02T14:49:58.120Z,35.51
2022-09-02T14:52:29.926Z,34.37
2022-09-02T14:54:58.193Z,36.35
2022-09-02T14:57:32.883Z,34.62
2022-09-02T15:00:05.135Z,35.89
2022-09-02T15:02:35.126Z,35.61
2022-09-02T15:05:07.501Z,35.72
2022-09-02T15:07:35.452Z,34.83
2022-09-02T15:10:02.947Z,35.03
2022-09-02T15:12:34.587Z,34.75
2022-09-02T15:15:01.662Z,35.28
2022-09-02T15:17:28.740Z,34.51
2022-09-02T15:19:55.723Z,35.60
2022-09-02T15:22:25.153Z,34.38
2022-09-02T15:24:52.357Z,35.80
2022-09-02T15:27:20.226Z,35.43
2022-09-02T15:29:49.024Z,35.58
2022-09-02T15:32:16.058Z,35.32
2022-09-02T15:34:43.239Z,36.14
2022-09-02T15:37:12.981Z,36.41
2022-09-02T15:39:41.572Z,35.87
2022-09-02T15:42:08.496Z,35.74
2022-09-02T15:44:36.277Z,36.37
2022-09-02T15:47:03.275Z,35.49
2022-09-02T15:49:30.159Z,35.79
2022-09-02T15:51:58.746Z,36.15
2022-09-02T15:54:25.779Z,35.65
2022-09-02T15:56:58.417Z,36.83
2022-09-02T15:59:26.102Z,35.87
2022-09-02T16:01:56.368Z,36.08
2022-09-02T16:04:23.766Z,36.07
2022-09-02T16:06:52.804Z,35.68
2022-09-02T16:09:20.318Z,35.91
2022-09-02T16:11:49.778Z,35.89
2022-09-02T16:14:20.540Z,36.18
2022-09-02T16:16:50.623Z,36.00
2022-09-02T16:19:19.880Z,37.26
2022-09-02T16:21:47.583Z,37.86
2022-09-02T16:24:14.481Z,37.19
2022-09-02T16:26:42.413Z,36.99
2022-09-02T16:29:12.196Z,38.37
2022-09-02T16:31:43.369Z,38.23
2022-09-02T16:34:13.680Z,39.17
2022-09-02T16:36:44.385Z,38.57
2022-09-02T16:39:12.747Z,38.26
2022-09-02T16:41:43.139Z,38.56
2022-09-02T16:44:13.218Z,38.58
2022-09-02T16:46:43.960Z,40.18
2022-09-02T16:49:13.417Z,40.22
2022-09-02T16:51:41.025Z,39.94
2022-09-02T16:54:17.309Z,39.66
2022-09-02T16:56:45.482Z,40.67
2022-09-02T16:59:13.204Z,42.32
2022-09-02T17:01:42.259Z,42.54
2022-09-02T17:04:09.186Z,42.02
2022-09-02T17:06:41.472Z,42.27
2022-09-02T17:09:09.734Z,42.11
2022-09-02T17:11:38.607Z,43.11
2022-09-02T17:14:08.348Z,43.43
2022-09-02T17:16:39.156Z,43.10
2022-09-02T17:19:09.917Z,42.92
2022-09-02T17:21:41.487Z,44.06
2022-09-02T17:24:18.368Z,43.46
2022-09-02T17:26:49.427Z,44.25
2022-09-02T17:29:46.842Z,44.90
2022-09-02T17:32:06.527Z,44.68
2022-09-02T17:34:34.930Z,44.67
2022-09-02T17:37:02.505Z,43.84
2022-09-02T17:39:29.371Z,44.88
2022-09-02T17:41:56.327Z,44.85
2022-09-02T17:44:26.966Z,44.24
2022-09-02T17:46:55.001Z,44.82
2022-09-02T17:49:22.425Z,44.93
2022-09-02T17:51:51.115Z,46.34
2022-09-02T17:54:18.345Z,45.16
2022-09-02T17:57:07.628Z,45.31
2022-09-02T17:59:53.029Z,43.08
2022-09-02T18:03:25.237Z,43.72
2022-09-02T18:06:10.360Z,43.52
2022-09-02T18:08:51.731Z,43.25
2022-09-02T18:11:20.500Z,43.25
2022-09-02T18:14:12.476Z,43.49
2022-09-02T18:16:58.591Z,43.69
2022-09-02T18:19:46.829Z,44.22
2022-09-02T18:22:37.335Z,45.32
2022-09-02T18:25:25.278Z,45.77
2022-09-02T18:28:06.524Z,45.15
2022-09-02T18:30:47.316Z,45.14
2022-09-02T18:33:35.426Z,45.44
2022-09-02T18:36:22.895Z,46.67
2022-09-02T18:39:14.792Z,46.30
2022-09-02T18:42:06.689Z,46.27
2022-09-02T18:44:45.137Z,45.72
2022-09-02T18:47:19.652Z,45.74
2022-09-02T18:49:52.312Z,46.03
2022-09-02T18:52:24.656Z,46.13
2022-09-02T18:55:05.224Z,46.30
2022-09-02T18:57:44.963Z,47.21
2022-09-02T19:00:13.521Z,46.51
2022-09-02T19:02:48.433Z,47.06
2022-09-02T19:05:20.497Z,47.52
2022-09-02T19:08:02.596Z,47.83
2022-09-02T19:10:29.902Z,47.59
2022-09-02T19:13:00.029Z,47.70
2022-09-02T19:15:27.809Z,47.06
2022-09-02T19:17:55.291Z,48.53
2022-09-02T19:20:22.508Z,48.39
2022-09-02T19:22:55.478Z,48.03
2022-09-02T19:25:29.038Z,48.59
2022-09-02T19:27:59.895Z,48.83
2022-09-02T19:30:33.450Z,48.71
2022-09-02T19:33:00.755Z,49.69
2022-09-02T19:40:59.428Z,49.32
2022-09-02T19:44:03.985Z,48.95
2022-09-02T19:47:20.697Z,49.37
2022-09-02T19:49:21.659Z,48.67
2022-09-02T20:21:23.300Z,49.43
2022-09-02T20:24:01.009Z,49.54
2022-09-02T20:27:02.369Z,49.95
2022-09-02T20:29:49.955Z,48.41
2022-09-02T20:32:38.589Z,49.13
2022-09-02T20:35:33.005Z,49.52
2022-09-02T20:49:14.423Z,49.87
2022-09-02T20:51:54.716Z,50.53
2022-09-02T20:54:39.487Z,50.05
2022-09-02T20:57:44.414Z,50.79
2022-09-02T21:00:15.849Z,50.30
2022-09-02T21:02:57.488Z,49.59
2022-09-02T21:05:34.452Z,50.36
2022-09-02T21:08:11.841Z,50.30
2022-09-02T21:10:43.199Z,49.31
2022-09-02T21:13:20.034Z,50.53
2022-09-02T21:15:54.152Z,49.58
2022-09-02T21:18:34.286Z,49.40
2022-09-02T21:21:16.165Z,50.51
2022-09-02T21:23:49.970Z,49.87
2022-09-02T21:26:30.816Z,49.95
2022-09-02T21:29:06.150Z,48.86
2022-09-02T21:31:41.987Z,50.54
2022-09-02T21:34:23.324Z,50.33
2022-09-02T21:36:54.733Z,50.34
2022-09-02T21:39:26.513Z,50.09
2022-09-02T21:42:07.606Z,50.91
2022-09-02T21:44:54.258Z,49.71
2022-09-02T21:47:31.279Z,50.89
2022-09-02T21:50:12.436Z,50.28
2022-09-02T21:53:13.111Z,49.80
2022-09-02T21:55:57.548Z,49.83
2022-09-02T21:58:51.693Z,49.65
2022-09-02T22:01:35.914Z,50.88
2022-09-02T22:04:24.945Z,50.98
2022-09-02T22:07:06.566Z,51.25
2022-09-02T22:09:35.098Z,51.59
2022-09-02T22:12:10.637Z,51.51
2022-09-02T22:14:46.887Z,51.55
2022-09-02T22:17:29.526Z,51.80
2022-09-02T22:19:59.773Z,51.56
2022-09-02T22:22:32.663Z,52.00
2022-09-02T22:25:01.417Z,51.33
2022-09-02T22:27:36.750Z,52.63
2022-09-02T22:30:08.487Z,53.31
2022-09-02T22:32:47.321Z,52.40
2022-09-02T22:35:26.568Z,53.42
2022-09-02T22:38:02.166Z,55.01
2022-09-02T22:40:38.284Z,53.71
2022-09-02T22:43:12.277Z,52.78
2022-09-02T22:45:50.225Z,53.91
2022-09-02T22:48:23.497Z,54.72
2022-09-02T22:50:59.207Z,55.40
2022-09-02T22:53:29.060Z,55.42
2022-09-02T22:56:02.769Z,57.03
2022-09-02T22:59:04.235Z,57.60
2022-09-02T23:01:49.811Z,57.61
2022-09-02T23:04:38.329Z,57.33
2022-09-02T23:07:05.939Z,57.35
2022-09-02T23:09:34.685Z,57.21
2022-09-02T23:12:22.181Z,55.81
2022-09-02T23:15:05.032Z,54.65
2022-09-02T23:17:48.163Z,54.30
2022-09-02T23:20:26.782Z,55.34
2022-09-02T23:23:14.150Z,52.79
2022-09-02T23:26:10.536Z,53.09
2022-09-02T23:28:59.162Z,54.15
2022-09-02T23:31:47.695Z,57.28
2022-09-02T23:34:30.412Z,58.65
2022-09-02T23:37:11.115Z,55.18
2022-09-02T23:39:59.746Z,54.95
2022-09-02T23:42:27.144Z,56.65
2022-09-02T23:45:16.191Z,57.21
2022-09-02T23:47:59.546Z,55.57
2022-09-02T23:50:43.520Z,56.37
2022-09-02T23:53:21.449Z,55.70
2022-09-02T23:56:03.986Z,53.71
2022-09-02T23:59:01.617Z,55.36
